sensor_id;sensor_type;location;lat;lon;timestamp;temperature;humidity
14277;DHT22;7222;57.346;12.150;2023-07-31T00:02:04;16.00;99.90
14277;DHT22;7222;57.346;12.150;2023-07-31T00:04:32;16.00;99.90
14277;DHT22;7222;57.346;12.150;2023-07-31T00:07:00;16.00;99.90
14277;DHT22;7222;57.346;12.150;2023-07-31T00:09:29;16.00;99.90
14277;DHT22;7222;57.346;12.150;2023-07-31T00:11:56;16.00;99.90
14277;DHT22;7222;57.346;12.150;2023-07-31T00:14:23;16.00;99.90
14277;DHT22;7222;57.346;12.150;2023-07-31T00:16:51;16.00;99.90
14277;DHT22;7222;57.346;12.150;2023-07-31T00:19:19;16.00;99.90
14277;DHT22;7222;57.346;12.150;2023-07-31T00:21:46;16.00;99.90
14277;DHT22;7222;57.346;12.150;2023-07-31T00:24:14;16.00;99.90
14277;DHT22;7222;57.346;12.150;2023-07-31T00:26:41;15.90;99.90
14277;DHT22;7222;57.346;12.150;2023-07-31T00:29:08;15.90;99.90
14277;DHT22;7222;57.346;12.150;2023-07-31T00:31:35;15.90;99.90
14277;DHT22;7222;57.346;12.150;2023-07-31T00:34:02;16.00;99.90
14277;DHT22;7222;57.346;12.150;2023-07-31T00:36:29;16.00;99.90
14277;DHT22;7222;57.346;12.150;2023-07-31T00:38:56;15.90;99.90
14277;DHT22;7222;57.346;12.150;2023-07-31T00:41:25;15.80;99.90
14277;DHT22;7222;57.346;12.150;2023-07-31T00:43:52;15.80;99.90
14277;DHT22;7222;57.346;12.150;2023-07-31T00:46:20;15.80;99.90
14277;DHT22;7222;57.346;12.150;2023-07-31T00:48:47;15.80;99.90
14277;DHT22;7222;57.346;12.150;2023-07-31T00:51:15;15.90;99.90
14277;DHT22;7222;57.346;12.150;2023-07-31T00:53:43;15.80;99.90
14277;DHT22;7222;57.346;12.150;2023-07-31T00:56:11;15.90;99.90
14277;DHT22;7222;57.346;12.150;2023-07-31T00:58:41;15.90;99.90
14277;DHT22;7222;57.346;12.150;2023-07-31T01:01:08;15.80;99.90
14277;DHT22;7222;57.346;12.150;2023-07-31T01:03:35;15.80;99.90
14277;DHT22;7222;57.346;12.150;2023-07-31T01:06:12;15.90;99.90
14277;DHT22;7222;57.346;12.150;2023-07-31T01:08:44;15.90;99.90
14277;DHT22;7222;57.346;12.150;2023-07-31T01:11:25;15.90;99.90
14277;DHT22;7222;57.346;12.150;2023-07-31T01:13:55;15.80;99.90
14277;DHT22;7222;57.346;12.150;2023-07-31T01:16:23;15.90;99.90
14277;DHT22;7222;57.346;12.150;2023-07-31T01:18:50;15.80;99.90
14277;DHT22;7222;57.346;12.150;2023-07-31T01:21:28;15.80;99.90
14277;DHT22;7222;57.346;12.150;2023-07-31T01:24:22;15.80;99.90
14277;DHT22;7222;57.346;12.150;2023-07-31T01:26:55;15.80;99.90
14277;DHT22;7222;57.346;12.150;2023-07-31T01:29:28;15.90;99.90
14277;DHT22;7222;57.346;12.150;2023-07-31T01:32:01;15.70;99.90
14277;DHT22;7222;57.346;12.150;2023-07-31T01:34:29;15.80;99.90
14277;DHT22;7222;57.346;12.150;2023-07-31T01:36:56;15.90;99.90
14277;DHT22;7222;57.346;12.150;2023-07-31T01:39:24;15.90;99.90
14277;DHT22;7222;57.346;12.150;2023-07-31T01:41:52;15.90;99.90
14277;DHT22;7222;57.346;12.150;2023-07-31T01:44:19;15.90;99.90
14277;DHT22;7222;57.346;12.150;2023-07-31T01:46:46;15.80;99.90
14277;DHT22;7222;57.346;12.150;2023-07-31T01:49:13;15.80;99.90
14277;DHT22;7222;57.346;12.150;2023-07-31T01:51:40;15.80;99.90
14277;DHT22;7222;57.346;12.150;2023-07-31T01:54:08;15.80;99.90
14277;DHT22;7222;57.346;12.150;2023-07-31T01:56:35;15.80;99.90
14277;DHT22;7222;57.346;12.150;2023-07-31T01:59:03;15.80;99.90
14277;DHT22;7222;57.346;12.150;2023-07-31T02:01:30;15.70;99.90
14277;DHT22;7222;57.346;12.150;2023-07-31T02:03:57;15.80;99.90
14277;DHT22;7222;57.346;12.150;2023-07-31T02:06:24;15.70;99.90
14277;DHT22;7222;57.346;12.150;2023-07-31T02:08:51;15.70;99.90
14277;DHT22;7222;57.346;12.150;2023-07-31T02:11:18;15.70;99.90
14277;DHT22;7222;57.346;12.150;2023-07-31T02:13:45;15.70;99.90
14277;DHT22;7222;57.346;12.150;2023-07-31T02:16:14;15.60;99.90
14277;DHT22;7222;57.346;12.150;2023-07-31T02:18:41;15.60;99.90
14277;DHT22;7222;57.346;12.150;2023-07-31T02:21:08;15.60;99.90
14277;DHT22;7222;57.346;12.150;2023-07-31T02:23:35;15.50;99.90
14277;DHT22;7222;57.346;12.150;2023-07-31T02:26:02;15.60;99.90
14277;DHT22;7222;57.346;12.150;2023-07-31T02:28:29;15.50;99.90
14277;DHT22;7222;57.346;12.150;2023-07-31T02:30:56;15.50;99.90
14277;DHT22;7222;57.346;12.150;2023-07-31T02:33:25;15.50;99.90
14277;DHT22;7222;57.346;12.150;2023-07-31T02:35:52;15.50;99.90
14277;DHT22;7222;57.346;12.150;2023-07-31T02:38:19;15.50;99.90
14277;DHT22;7222;57.346;12.150;2023-07-31T02:40:46;15.50;99.90
14277;DHT22;7222;57.346;12.150;2023-07-31T02:43:13;15.50;99.90
14277;DHT22;7222;57.346;12.150;2023-07-31T02:45:40;15.50;99.90
14277;DHT22;7222;57.346;12.150;2023-07-31T02:48:07;15.40;99.90
14277;DHT22;7222;57.346;12.150;2023-07-31T02:50:36;15.40;99.90
14277;DHT22;7222;57.346;12.150;2023-07-31T02:53:03;15.40;99.90
14277;DHT22;7222;57.346;12.150;2023-07-31T02:55:30;15.40;99.90
14277;DHT22;7222;57.346;12.150;2023-07-31T02:57:57;15.40;99.90
14277;DHT22;7222;57.346;12.150;2023-07-31T03:00:24;15.40;99.90
14277;DHT22;7222;57.346;12.150;2023-07-31T03:02:51;15.40;99.90
14277;DHT22;7222;57.346;12.150;2023-07-31T03:05:18;15.40;99.90
14277;DHT22;7222;57.346;12.150;2023-07-31T03:07:46;15.40;99.90
14277;DHT22;7222;57.346;12.150;2023-07-31T03:10:13;15.40;99.90
14277;DHT22;7222;57.346;12.150;2023-07-31T03:12:41;15.40;99.90
14277;DHT22;7222;57.346;12.150;2023-07-31T03:15:09;15.40;99.90
14277;DHT22;7222;57.346;12.150;2023-07-31T03:17:36;15.40;99.90
14277;DHT22;7222;57.346;12.150;2023-07-31T03:20:04;15.40;99.90
14277;DHT22;7222;57.346;12.150;2023-07-31T03:22:31;15.50;99.90
14277;DHT22;7222;57.346;12.150;2023-07-31T03:24:59;15.50;99.90
14277;DHT22;7222;57.346;12.150;2023-07-31T03:27:26;15.50;99.90
14277;DHT22;7222;57.346;12.150;2023-07-31T03:29:53;15.50;99.90
14277;DHT22;7222;57.346;12.150;2023-07-31T03:32:21;15.30;99.90
14277;DHT22;7222;57.346;12.150;2023-07-31T03:34:48;15.40;99.90
14277;DHT22;7222;57.346;12.150;2023-07-31T03:37:15;15.40;99.90
14277;DHT22;7222;57.346;12.150;2023-07-31T03:39:42;15.40;99.90
14277;DHT22;7222;57.346;12.150;2023-07-31T03:42:10;15.40;99.90
14277;DHT22;7222;57.346;12.150;2023-07-31T03:44:37;15.40;99.90
14277;DHT22;7222;57.346;12.150;2023-07-31T03:47:05;15.40;99.90
14277;DHT22;7222;57.346;12.150;2023-07-31T03:49:32;15.20;99.90
14277;DHT22;7222;57.346;12.150;2023-07-31T03:51:58;15.20;99.90
14277;DHT22;7222;57.346;12.150;2023-07-31T03:54:26;15.20;99.90
14277;DHT22;7222;57.346;12.150;2023-07-31T03:56:53;15.20;99.90
14277;DHT22;7222;57.346;12.150;2023-07-31T03:59:21;15.10;99.90
14277;DHT22;7222;57.346;12.150;2023-07-31T04:01:48;15.20;99.90
14277;DHT22;7222;57.346;12.150;2023-07-31T04:04:15;15.00;99.90
14277;DHT22;7222;57.346;12.150;2023-07-31T04:06:42;15.00;99.90
14277;DHT22;7222;57.346;12.150;2023-07-31T04:09:09;14.80;99.90
14277;DHT22;7222;57.346;12.150;2023-07-31T04:11:36;14.90;99.90
14277;DHT22;7222;57.346;12.150;2023-07-31T04:14:04;15.00;99.90
14277;DHT22;7222;57.346;12.150;2023-07-31T04:16:33;15.20;99.90
14277;DHT22;7222;57.346;12.150;2023-07-31T04:19:00;15.10;99.90
14277;DHT22;7222;57.346;12.150;2023-07-31T04:21:28;14.90;99.90
14277;DHT22;7222;57.346;12.150;2023-07-31T04:23:55;14.90;99.90
14277;DHT22;7222;57.346;12.150;2023-07-31T04:26:23;14.80;99.90
14277;DHT22;7222;57.346;12.150;2023-07-31T04:28:50;15.00;99.90
14277;DHT22;7222;57.346;12.150;2023-07-31T04:31:17;15.10;99.90
14277;DHT22;7222;57.346;12.150;2023-07-31T04:33:46;15.00;99.90
14277;DHT22;7222;57.346;12.150;2023-07-31T04:36:13;14.80;99.90
14277;DHT22;7222;57.346;12.150;2023-07-31T04:38:40;14.90;99.90
14277;DHT22;7222;57.346;12.150;2023-07-31T04:41:08;15.00;99.90
14277;DHT22;7222;57.346;12.150;2023-07-31T04:43:34;15.10;99.90
14277;DHT22;7222;57.346;12.150;2023-07-31T04:46:04;15.20;99.90
14277;DHT22;7222;57.346;12.150;2023-07-31T04:48:32;15.30;99.90
14277;DHT22;7222;57.346;12.150;2023-07-31T04:51:00;15.20;99.90
14277;DHT22;7222;57.346;12.150;2023-07-31T04:53:27;15.10;99.90
14277;DHT22;7222;57.346;12.150;2023-07-31T04:55:54;15.20;99.90
14277;DHT22;7222;57.346;12.150;2023-07-31T04:58:21;15.30;99.90
14277;DHT22;7222;57.346;12.150;2023-07-31T05:00:48;15.30;99.90
14277;DHT22;7222;57.346;12.150;2023-07-31T05:03:16;15.40;99.90
14277;DHT22;7222;57.346;12.150;2023-07-31T05:05:43;15.30;99.90
14277;DHT22;7222;57.346;12.150;2023-07-31T05:08:11;15.60;99.90
14277;DHT22;7222;57.346;12.150;2023-07-31T05:10:39;15.80;99.90
14277;DHT22;7222;57.346;12.150;2023-07-31T05:13:06;15.80;99.90
14277;DHT22;7222;57.346;12.150;2023-07-31T05:15:33;15.60;99.90
14277;DHT22;7222;57.346;12.150;2023-07-31T05:18:00;15.90;99.90
14277;DHT22;7222;57.346;12.150;2023-07-31T05:20:27;15.80;99.90
14277;DHT22;7222;57.346;12.150;2023-07-31T05:22:54;16.00;99.90
14277;DHT22;7222;57.346;12.150;2023-07-31T05:25:22;16.00;99.90
14277;DHT22;7222;57.346;12.150;2023-07-31T05:27:49;16.40;99.90
14277;DHT22;7222;57.346;12.150;2023-07-31T05:30:16;16.30;99.90
14277;DHT22;7222;57.346;12.150;2023-07-31T05:32:44;16.10;99.90
14277;DHT22;7222;57.346;12.150;2023-07-31T05:35:12;16.20;99.90
14277;DHT22;7222;57.346;12.150;2023-07-31T05:37:39;16.40;99.90
14277;DHT22;7222;57.346;12.150;2023-07-31T05:40:07;16.40;99.90
14277;DHT22;7222;57.346;12.150;2023-07-31T05:42:35;16.40;99.90
14277;DHT22;7222;57.346;12.150;2023-07-31T05:45:05;16.60;99.90
14277;DHT22;7222;57.346;12.150;2023-07-31T05:47:32;16.50;99.90
14277;DHT22;7222;57.346;12.150;2023-07-31T05:49:59;16.40;99.90
14277;DHT22;7222;57.346;12.150;2023-07-31T05:52:27;16.50;99.90
14277;DHT22;7222;57.346;12.150;2023-07-31T05:54:54;16.40;99.90
14277;DHT22;7222;57.346;12.150;2023-07-31T05:57:21;16.50;99.90
14277;DHT22;7222;57.346;12.150;2023-07-31T05:59:50;16.40;99.90
14277;DHT22;7222;57.346;12.150;2023-07-31T06:02:18;16.40;99.90
14277;DHT22;7222;57.346;12.150;2023-07-31T06:04:46;16.20;99.90
14277;DHT22;7222;57.346;12.150;2023-07-31T06:07:13;16.20;99.90
14277;DHT22;7222;57.346;12.150;2023-07-31T06:09:40;16.20;99.90
14277;DHT22;7222;57.346;12.150;2023-07-31T06:12:08;16.30;99.90
14277;DHT22;7222;57.346;12.150;2023-07-31T06:14:35;16.20;99.90
14277;DHT22;7222;57.346;12.150;2023-07-31T06:17:04;16.10;99.90
14277;DHT22;7222;57.346;12.150;2023-07-31T06:19:32;16.10;99.90
14277;DHT22;7222;57.346;12.150;2023-07-31T06:21:59;16.10;99.90
14277;DHT22;7222;57.346;12.150;2023-07-31T06:24:26;16.10;99.90
14277;DHT22;7222;57.346;12.150;2023-07-31T06:26:53;16.10;99.90
14277;DHT22;7222;57.346;12.150;2023-07-31T06:29:20;16.20;99.90
14277;DHT22;7222;57.346;12.150;2023-07-31T06:31:47;16.10;99.90
14277;DHT22;7222;57.346;12.150;2023-07-31T06:34:36;16.10;99.90
14277;DHT22;7222;57.346;12.150;2023-07-31T06:37:04;16.10;99.90
14277;DHT22;7222;57.346;12.150;2023-07-31T06:40:01;16.00;99.90
14277;DHT22;7222;57.346;12.150;2023-07-31T06:42:19;16.00;99.90
14277;DHT22;7222;57.346;12.150;2023-07-31T06:44:46;16.00;99.90
14277;DHT22;7222;57.346;12.150;2023-07-31T06:47:13;16.00;99.90
14277;DHT22;7222;57.346;12.150;2023-07-31T06:49:42;16.00;99.90
14277;DHT22;7222;57.346;12.150;2023-07-31T06:52:09;16.10;99.90
14277;DHT22;7222;57.346;12.150;2023-07-31T06:54:36;15.90;99.90
14277;DHT22;7222;57.346;12.150;2023-07-31T06:57:04;15.50;99.90
14277;DHT22;7222;57.346;12.150;2023-07-31T06:59:31;15.40;99.90
14277;DHT22;7222;57.346;12.150;2023-07-31T07:01:58;15.40;99.90
14277;DHT22;7222;57.346;12.150;2023-07-31T07:04:25;15.40;99.90
14277;DHT22;7222;57.346;12.150;2023-07-31T07:06:54;15.60;99.90
14277;DHT22;7222;57.346;12.150;2023-07-31T07:09:22;15.60;99.90
14277;DHT22;7222;57.346;12.150;2023-07-31T07:11:49;15.70;99.90
14277;DHT22;7222;57.346;12.150;2023-07-31T07:14:16;15.80;99.90
14277;DHT22;7222;57.346;12.150;2023-07-31T07:16:42;15.80;99.90
14277;DHT22;7222;57.346;12.150;2023-07-31T07:19:10;15.70;99.90
14277;DHT22;7222;57.346;12.150;2023-07-31T07:21:37;15.70;99.90
14277;DHT22;7222;57.346;12.150;2023-07-31T07:24:05;15.70;99.90
14277;DHT22;7222;57.346;12.150;2023-07-31T07:26:32;15.70;99.90
14277;DHT22;7222;57.346;12.150;2023-07-31T07:29:00;15.70;99.90
14277;DHT22;7222;57.346;12.150;2023-07-31T07:31:28;15.70;99.90
14277;DHT22;7222;57.346;12.150;2023-07-31T07:33:55;15.70;99.90
14277;DHT22;7222;57.346;12.150;2023-07-31T07:36:22;15.60;99.90
14277;DHT22;7222;57.346;12.150;2023-07-31T07:38:50;15.60;99.90
14277;DHT22;7222;57.346;12.150;2023-07-31T07:41:18;15.60;99.90
14277;DHT22;7222;57.346;12.150;2023-07-31T07:43:45;15.60;99.90
14277;DHT22;7222;57.346;12.150;2023-07-31T07:46:12;15.50;99.90
14277;DHT22;7222;57.346;12.150;2023-07-31T07:48:40;15.40;99.90
14277;DHT22;7222;57.346;12.150;2023-07-31T07:51:07;15.10;99.90
14277;DHT22;7222;57.346;12.150;2023-07-31T07:53:34;15.10;99.90
14277;DHT22;7222;57.346;12.150;2023-07-31T07:56:01;15.20;99.90
14277;DHT22;7222;57.346;12.150;2023-07-31T07:58:30;15.20;99.90
14277;DHT22;7222;57.346;12.150;2023-07-31T08:00:57;15.20;99.90
14277;DHT22;7222;57.346;12.150;2023-07-31T08:03:24;15.20;99.90
14277;DHT22;7222;57.346;12.150;2023-07-31T08:05:50;15.20;99.90
14277;DHT22;7222;57.346;12.150;2023-07-31T08:08:17;15.20;99.90
14277;DHT22;7222;57.346;12.150;2023-07-31T08:10:45;15.00;99.90
14277;DHT22;7222;57.346;12.150;2023-07-31T08:13:12;14.90;99.90
14277;DHT22;7222;57.346;12.150;2023-07-31T08:15:42;14.90;99.90
14277;DHT22;7222;57.346;12.150;2023-07-31T08:18:10;14.80;99.90
14277;DHT22;7222;57.346;12.150;2023-07-31T08:20:37;14.90;99.90
14277;DHT22;7222;57.346;12.150;2023-07-31T08:23:04;14.90;99.90
14277;DHT22;7222;57.346;12.150;2023-07-31T08:25:34;15.00;99.90
14277;DHT22;7222;57.346;12.150;2023-07-31T08:28:01;15.10;99.90
14277;DHT22;7222;57.346;12.150;2023-07-31T08:30:28;15.00;99.90
14277;DHT22;7222;57.346;12.150;2023-07-31T08:32:57;15.20;99.90
14277;DHT22;7222;57.346;12.150;2023-07-31T08:35:24;15.20;99.90
14277;DHT22;7222;57.346;12.150;2023-07-31T08:37:51;15.20;99.90
14277;DHT22;7222;57.346;12.150;2023-07-31T08:40:19;15.30;99.90
14277;DHT22;7222;57.346;12.150;2023-07-31T08:42:49;15.40;99.90
14277;DHT22;7222;57.346;12.150;2023-07-31T08:45:18;15.40;99.90
14277;DHT22;7222;57.346;12.150;2023-07-31T08:47:47;15.40;99.90
14277;DHT22;7222;57.346;12.150;2023-07-31T08:50:17;15.60;99.90
14277;DHT22;7222;57.346;12.150;2023-07-31T08:52:45;15.60;99.90
14277;DHT22;7222;57.346;12.150;2023-07-31T08:55:12;15.70;99.90
14277;DHT22;7222;57.346;12.150;2023-07-31T08:57:40;15.70;99.90
14277;DHT22;7222;57.346;12.150;2023-07-31T09:00:10;15.80;99.90
14277;DHT22;7222;57.346;12.150;2023-07-31T09:02:41;16.00;99.90
14277;DHT22;7222;57.346;12.150;2023-07-31T09:05:11;16.10;99.90
14277;DHT22;7222;57.346;12.150;2023-07-31T09:07:40;16.10;99.90
14277;DHT22;7222;57.346;12.150;2023-07-31T09:10:11;16.10;99.90
14277;DHT22;7222;57.346;12.150;2023-07-31T09:12:39;16.00;99.90
14277;DHT22;7222;57.346;12.150;2023-07-31T09:15:07;16.00;99.90
14277;DHT22;7222;57.346;12.150;2023-07-31T09:17:36;15.70;99.90
14277;DHT22;7222;57.346;12.150;2023-07-31T09:20:16;15.80;99.90
14277;DHT22;7222;57.346;12.150;2023-07-31T09:22:45;15.90;99.90
14277;DHT22;7222;57.346;12.150;2023-07-31T09:25:17;15.90;99.90
14277;DHT22;7222;57.346;12.150;2023-07-31T09:27:48;15.90;99.90
14277;DHT22;7222;57.346;12.150;2023-07-31T09:30:16;16.00;99.90
14277;DHT22;7222;57.346;12.150;2023-07-31T09:32:44;16.20;99.90
14277;DHT22;7222;57.346;12.150;2023-07-31T09:35:19;16.30;99.90
14277;DHT22;7222;57.346;12.150;2023-07-31T09:37:52;16.50;99.90
14277;DHT22;7222;57.346;12.150;2023-07-31T09:40:26;16.40;99.90
14277;DHT22;7222;57.346;12.150;2023-07-31T09:42:55;16.10;99.90
14277;DHT22;7222;57.346;12.150;2023-07-31T09:45:23;16.20;99.90
14277;DHT22;7222;57.346;12.150;2023-07-31T09:47:50;16.30;99.90
14277;DHT22;7222;57.346;12.150;2023-07-31T09:50:17;16.30;99.90
14277;DHT22;7222;57.346;12.150;2023-07-31T09:52:45;16.10;99.90
14277;DHT22;7222;57.346;12.150;2023-07-31T09:55:13;16.20;99.90
14277;DHT22;7222;57.346;12.150;2023-07-31T09:57:41;16.20;99.90
14277;DHT22;7222;57.346;12.150;2023-07-31T10:00:10;16.20;99.90
14277;DHT22;7222;57.346;12.150;2023-07-31T10:02:38;16.20;99.90
14277;DHT22;7222;57.346;12.150;2023-07-31T10:05:07;16.10;99.90
14277;DHT22;7222;57.346;12.150;2023-07-31T10:07:37;16.10;99.90
14277;DHT22;7222;57.346;12.150;2023-07-31T10:10:08;16.20;99.90
14277;DHT22;7222;57.346;12.150;2023-07-31T10:12:37;16.20;99.90
14277;DHT22;7222;57.346;12.150;2023-07-31T10:15:05;16.00;99.90
14277;DHT22;7222;57.346;12.150;2023-07-31T10:17:35;15.60;99.90
14277;DHT22;7222;57.346;12.150;2023-07-31T10:20:07;15.90;99.90
14277;DHT22;7222;57.346;12.150;2023-07-31T10:22:35;16.00;99.90
14277;DHT22;7222;57.346;12.150;2023-07-31T10:25:02;16.10;99.90
14277;DHT22;7222;57.346;12.150;2023-07-31T10:27:33;16.40;99.90
14277;DHT22;7222;57.346;12.150;2023-07-31T10:30:07;16.30;99.90
14277;DHT22;7222;57.346;12.150;2023-07-31T10:32:35;16.70;99.90
14277;DHT22;7222;57.346;12.150;2023-07-31T10:35:04;17.10;99.90
14277;DHT22;7222;57.346;12.150;2023-07-31T10:37:36;17.20;99.90
14277;DHT22;7222;57.346;12.150;2023-07-31T10:40:05;16.60;99.90
14277;DHT22;7222;57.346;12.150;2023-07-31T10:42:34;17.10;99.90
14277;DHT22;7222;57.346;12.150;2023-07-31T10:45:05;16.80;99.90
14277;DHT22;7222;57.346;12.150;2023-07-31T10:47:37;16.90;99.90
14277;DHT22;7222;57.346;12.150;2023-07-31T10:50:14;16.80;99.90
14277;DHT22;7222;57.346;12.150;2023-07-31T10:52:46;17.10;99.90
14277;DHT22;7222;57.346;12.150;2023-07-31T10:55:16;17.40;99.90
14277;DHT22;7222;57.346;12.150;2023-07-31T10:57:49;16.90;99.90
14277;DHT22;7222;57.346;12.150;2023-07-31T11:00:23;16.70;99.90
14277;DHT22;7222;57.346;12.150;2023-07-31T11:03:13;16.70;99.90
14277;DHT22;7222;57.346;12.150;2023-07-31T11:05:50;16.60;99.90
14277;DHT22;7222;57.346;12.150;2023-07-31T11:08:20;16.50;99.90
14277;DHT22;7222;57.346;12.150;2023-07-31T11:10:49;16.60;99.90
14277;DHT22;7222;57.346;12.150;2023-07-31T11:13:16;16.60;99.90
14277;DHT22;7222;57.346;12.150;2023-07-31T11:15:45;16.50;99.90
14277;DHT22;7222;57.346;12.150;2023-07-31T11:21:00;16.80;99.90
14277;DHT22;7222;57.346;12.150;2023-07-31T11:23:28;17.10;99.90
14277;DHT22;7222;57.346;12.150;2023-07-31T11:25:59;17.10;99.90
14277;DHT22;7222;57.346;12.150;2023-07-31T11:28:31;16.90;99.90
14277;DHT22;7222;57.346;12.150;2023-07-31T11:31:00;16.70;99.90
14277;DHT22;7222;57.346;12.150;2023-07-31T11:33:27;16.80;99.90
14277;DHT22;7222;57.346;12.150;2023-07-31T11:35:55;16.60;99.90
14277;DHT22;7222;57.346;12.150;2023-07-31T11:38:23;16.50;99.90
14277;DHT22;7222;57.346;12.150;2023-07-31T11:40:51;16.70;99.90
14277;DHT22;7222;57.346;12.150;2023-07-31T11:43:19;16.80;99.90
14277;DHT22;7222;57.346;12.150;2023-07-31T11:45:48;16.80;99.90
14277;DHT22;7222;57.346;12.150;2023-07-31T11:48:24;16.90;99.90
14277;DHT22;7222;57.346;12.150;2023-07-31T11:51:05;17.10;99.90
14277;DHT22;7222;57.346;12.150;2023-07-31T11:53:36;17.20;99.90
14277;DHT22;7222;57.346;12.150;2023-07-31T11:56:05;17.10;99.90
14277;DHT22;7222;57.346;12.150;2023-07-31T11:58:34;17.20;99.90
14277;DHT22;7222;57.346;12.150;2023-07-31T12:01:02;17.50;99.90
14277;DHT22;7222;57.346;12.150;2023-07-31T12:03:31;16.90;99.90
14277;DHT22;7222;57.346;12.150;2023-07-31T12:05:58;17.00;99.90
14277;DHT22;7222;57.346;12.150;2023-07-31T12:08:26;17.30;99.90
14277;DHT22;7222;57.346;12.150;2023-07-31T12:10:54;17.40;99.90
14277;DHT22;7222;57.346;12.150;2023-07-31T12:13:22;17.50;99.90
14277;DHT22;7222;57.346;12.150;2023-07-31T12:15:54;17.90;99.90
14277;DHT22;7222;57.346;12.150;2023-07-31T12:18:23;18.30;99.90
14277;DHT22;7222;57.346;12.150;2023-07-31T12:20:56;17.80;99.90
14277;DHT22;7222;57.346;12.150;2023-07-31T12:23:25;17.70;99.90
14277;DHT22;7222;57.346;12.150;2023-07-31T12:26:00;18.10;99.90
14277;DHT22;7222;57.346;12.150;2023-07-31T12:28:27;18.40;99.90
14277;DHT22;7222;57.346;12.150;2023-07-31T12:30:57;18.30;99.90
14277;DHT22;7222;57.346;12.150;2023-07-31T12:33:30;18.30;99.90
14277;DHT22;7222;57.346;12.150;2023-07-31T12:36:01;17.90;99.90
14277;DHT22;7222;57.346;12.150;2023-07-31T12:38:28;17.70;99.90
14277;DHT22;7222;57.346;12.150;2023-07-31T12:40:55;17.80;99.90
14277;DHT22;7222;57.346;12.150;2023-07-31T12:43:22;17.70;99.90
14277;DHT22;7222;57.346;12.150;2023-07-31T12:45:49;17.40;99.90
14277;DHT22;7222;57.346;12.150;2023-07-31T12:48:16;17.50;99.90
14277;DHT22;7222;57.346;12.150;2023-07-31T12:50:43;17.50;99.90
14277;DHT22;7222;57.346;12.150;2023-07-31T12:53:12;17.30;99.90
14277;DHT22;7222;57.346;12.150;2023-07-31T12:55:39;17.40;99.90
14277;DHT22;7222;57.346;12.150;2023-07-31T12:58:06;17.20;99.90
14277;DHT22;7222;57.346;12.150;2023-07-31T13:00:33;17.20;99.90
14277;DHT22;7222;57.346;12.150;2023-07-31T13:03:00;17.60;99.90
14277;DHT22;7222;57.346;12.150;2023-07-31T13:05:27;17.80;99.90
14277;DHT22;7222;57.346;12.150;2023-07-31T13:07:55;17.80;99.90
14277;DHT22;7222;57.346;12.150;2023-07-31T13:10:24;18.40;99.90
14277;DHT22;7222;57.346;12.150;2023-07-31T13:12:52;19.00;99.90
14277;DHT22;7222;57.346;12.150;2023-07-31T13:15:19;18.90;99.90
14277;DHT22;7222;57.346;12.150;2023-07-31T13:17:46;19.40;99.90
14277;DHT22;7222;57.346;12.150;2023-07-31T13:20:13;19.20;99.90
14277;DHT22;7222;57.346;12.150;2023-07-31T13:22:40;19.80;99.90
14277;DHT22;7222;57.346;12.150;2023-07-31T13:25:08;19.90;99.90
14277;DHT22;7222;57.346;12.150;2023-07-31T13:27:36;19.80;99.90
14277;DHT22;7222;57.346;12.150;2023-07-31T13:30:05;19.80;99.90
14277;DHT22;7222;57.346;12.150;2023-07-31T13:32:32;19.50;99.90
14277;DHT22;7222;57.346;12.150;2023-07-31T13:34:59;18.50;99.90
14277;DHT22;7222;57.346;12.150;2023-07-31T13:37:26;18.40;99.90
14277;DHT22;7222;57.346;12.150;2023-07-31T13:39:53;18.70;99.90
14277;DHT22;7222;57.346;12.150;2023-07-31T13:42:20;19.20;99.90
14277;DHT22;7222;57.346;12.150;2023-07-31T13:44:49;19.70;99.90
14277;DHT22;7222;57.346;12.150;2023-07-31T13:47:16;20.10;99.90
14277;DHT22;7222;57.346;12.150;2023-07-31T13:49:43;19.80;99.90
14277;DHT22;7222;57.346;12.150;2023-07-31T13:52:10;19.40;99.90
14277;DHT22;7222;57.346;12.150;2023-07-31T13:54:37;19.80;99.90
14277;DHT22;7222;57.346;12.150;2023-07-31T13:57:05;21.10;99.90
14277;DHT22;7222;57.346;12.150;2023-07-31T13:59:32;21.00;99.90
14277;DHT22;7222;57.346;12.150;2023-07-31T14:02:01;20.60;99.90
14277;DHT22;7222;57.346;12.150;2023-07-31T14:04:28;21.40;99.90
14277;DHT22;7222;57.346;12.150;2023-07-31T14:06:55;21.00;99.90
14277;DHT22;7222;57.346;12.150;2023-07-31T14:09:23;20.90;99.90
14277;DHT22;7222;57.346;12.150;2023-07-31T14:11:50;20.90;99.90
14277;DHT22;7222;57.346;12.150;2023-07-31T14:14:17;20.60;99.90
14277;DHT22;7222;57.346;12.150;2023-07-31T14:16:45;21.40;99.90
14277;DHT22;7222;57.346;12.150;2023-07-31T14:19:13;21.50;99.90
14277;DHT22;7222;57.346;12.150;2023-07-31T14:21:40;20.40;99.90
14277;DHT22;7222;57.346;12.150;2023-07-31T14:24:07;20.60;99.90
14277;DHT22;7222;57.346;12.150;2023-07-31T14:26:34;20.90;99.90
14277;DHT22;7222;57.346;12.150;2023-07-31T14:29:00;20.90;99.90
14277;DHT22;7222;57.346;12.150;2023-07-31T14:31:28;20.50;99.90
14277;DHT22;7222;57.346;12.150;2023-07-31T14:33:54;20.70;99.90
14277;DHT22;7222;57.346;12.150;2023-07-31T14:36:23;20.50;99.90
14277;DHT22;7222;57.346;12.150;2023-07-31T14:38:50;20.60;99.90
14277;DHT22;7222;57.346;12.150;2023-07-31T14:41:16;20.80;99.90
14277;DHT22;7222;57.346;12.150;2023-07-31T14:43:43;20.70;99.90
14277;DHT22;7222;57.346;12.150;2023-07-31T14:46:10;20.10;99.90
14277;DHT22;7222;57.346;12.150;2023-07-31T14:48:37;19.80;99.90
14277;DHT22;7222;57.346;12.150;2023-07-31T14:51:04;20.40;99.90
14277;DHT22;7222;57.346;12.150;2023-07-31T14:53:33;20.50;99.90
14277;DHT22;7222;57.346;12.150;2023-07-31T14:56:00;20.50;99.90
14277;DHT22;7222;57.346;12.150;2023-07-31T14:58:27;20.40;99.90
14277;DHT22;7222;57.346;12.150;2023-07-31T15:00:53;20.40;99.90
14277;DHT22;7222;57.346;12.150;2023-07-31T15:03:20;20.30;99.90
14277;DHT22;7222;57.346;12.150;2023-07-31T15:05:47;20.50;99.90
14277;DHT22;7222;57.346;12.150;2023-07-31T15:08:14;20.60;99.90
14277;DHT22;7222;57.346;12.150;2023-07-31T15:10:42;20.50;99.90
14277;DHT22;7222;57.346;12.150;2023-07-31T15:13:09;20.70;99.90
14277;DHT22;7222;57.346;12.150;2023-07-31T15:15:36;21.00;99.90
14277;DHT22;7222;57.346;12.150;2023-07-31T15:18:03;20.40;99.90
14277;DHT22;7222;57.346;12.150;2023-07-31T15:20:30;20.60;99.90
14277;DHT22;7222;57.346;12.150;2023-07-31T15:22:58;20.70;99.90
14277;DHT22;7222;57.346;12.150;2023-07-31T15:25:25;20.80;99.90
14277;DHT22;7222;57.346;12.150;2023-07-31T15:27:54;20.90;99.90
14277;DHT22;7222;57.346;12.150;2023-07-31T15:30:20;21.20;99.90
14277;DHT22;7222;57.346;12.150;2023-07-31T15:32:47;21.10;99.90
14277;DHT22;7222;57.346;12.150;2023-07-31T15:35:15;21.10;99.90
14277;DHT22;7222;57.346;12.150;2023-07-31T15:37:42;21.00;99.90
14277;DHT22;7222;57.346;12.150;2023-07-31T15:40:10;21.00;99.90